sensor_id;sensor_type;location;lat;lon;timestamp;P1;durP1;ratioP1;P2;durP2;ratioP2
79401;SDS011;68857;47.916;106.940;2024-03-02T00:01:23;30.27;;;9.30;;
79401;SDS011;68857;47.916;106.940;2024-03-02T00:03:50;27.40;;;11.30;;
79401;SDS011;68857;47.916;106.940;2024-03-02T00:06:19;26.50;;;9.70;;
79401;SDS011;68857;47.916;106.940;2024-03-02T00:08:47;33.17;;;12.60;;
79401;SDS011;68857;47.916;106.940;2024-03-02T00:11:14;32.80;;;12.90;;
79401;SDS011;68857;47.916;106.940;2024-03-02T00:13:41;30.17;;;12.73;;
79401;SDS011;68857;47.916;106.940;2024-03-02T00:16:08;37.60;;;11.60;;
79401;SDS011;68857;47.916;106.940;2024-03-02T00:18:36;39.08;;;13.77;;
79401;SDS011;68857;47.916;106.940;2024-03-02T00:21:03;39.50;;;13.32;;
79401;SDS011;68857;47.916;106.940;2024-03-02T00:23:34;37.70;;;11.55;;
79401;SDS011;68857;47.916;106.940;2024-03-02T00:26:01;37.00;;;11.45;;
79401;SDS011;68857;47.916;106.940;2024-03-02T00:28:33;30.65;;;12.38;;
79401;SDS011;68857;47.916;106.940;2024-03-02T00:31:07;38.63;;;13.00;;
79401;SDS011;68857;47.916;106.940;2024-03-02T00:33:34;30.90;;;11.38;;
79401;SDS011;68857;47.916;106.940;2024-03-02T00:36:02;38.75;;;12.63;;
79401;SDS011;68857;47.916;106.940;2024-03-02T00:38:32;35.53;;;12.98;;
79401;SDS011;68857;47.916;106.940;2024-03-02T00:41:08;38.88;;;12.85;;
79401;SDS011;68857;47.916;106.940;2024-03-02T00:43:52;37.40;;;12.48;;
79401;SDS011;68857;47.916;106.940;2024-03-02T00:46:21;33.70;;;11.90;;
79401;SDS011;68857;47.916;106.940;2024-03-02T00:48:51;38.65;;;13.07;;
79401;SDS011;68857;47.916;106.940;2024-03-02T00:51:20;38.00;;;12.30;;
79401;SDS011;68857;47.916;106.940;2024-03-02T00:53:48;42.33;;;15.88;;
79401;SDS011;68857;47.916;106.940;2024-03-02T00:56:14;44.38;;;14.40;;
79401;SDS011;68857;47.916;106.940;2024-03-02T00:58:42;42.53;;;14.20;;
79401;SDS011;68857;47.916;106.940;2024-03-02T01:01:08;39.28;;;12.68;;
79401;SDS011;68857;47.916;106.940;2024-03-02T01:03:35;38.88;;;12.38;;
79401;SDS011;68857;47.916;106.940;2024-03-02T01:06:02;34.83;;;11.98;;
79401;SDS011;68857;47.916;106.940;2024-03-02T01:08:29;32.13;;;10.95;;
79401;SDS011;68857;47.916;106.940;2024-03-02T01:10:56;29.08;;;11.98;;
79401;SDS011;68857;47.916;106.940;2024-03-02T01:13:23;32.72;;;10.90;;
79401;SDS011;68857;47.916;106.940;2024-03-02T01:15:50;28.90;;;11.02;;
79401;SDS011;68857;47.916;106.940;2024-03-02T01:18:16;31.95;;;10.63;;
79401;SDS011;68857;47.916;106.940;2024-03-02T01:20:43;33.90;;;11.38;;
79401;SDS011;68857;47.916;106.940;2024-03-02T01:23:10;32.35;;;11.82;;
79401;SDS011;68857;47.916;106.940;2024-03-02T01:25:37;29.77;;;12.02;;
79401;SDS011;68857;47.916;106.940;2024-03-02T01:28:04;39.92;;;13.43;;
79401;SDS011;68857;47.916;106.940;2024-03-02T01:30:31;40.15;;;13.82;;
79401;SDS011;68857;47.916;106.940;2024-03-02T01:32:57;38.00;;;12.40;;
79401;SDS011;68857;47.916;106.940;2024-03-02T01:35:25;39.28;;;13.90;;
79401;SDS011;68857;47.916;106.940;2024-03-02T01:37:52;48.90;;;17.48;;
79401;SDS011;68857;47.916;106.940;2024-03-02T01:40:19;40.97;;;14.63;;
79401;SDS011;68857;47.916;106.940;2024-03-02T01:42:45;38.40;;;13.25;;
79401;SDS011;68857;47.916;106.940;2024-03-02T01:45:12;45.58;;;13.77;;
79401;SDS011;68857;47.916;106.940;2024-03-02T01:47:39;35.90;;;12.82;;
79401;SDS011;68857;47.916;106.940;2024-03-02T01:50:06;36.55;;;14.07;;
79401;SDS011;68857;47.916;106.940;2024-03-02T01:52:34;39.03;;;11.93;;
79401;SDS011;68857;47.916;106.940;2024-03-02T01:55:01;34.65;;;12.93;;
79401;SDS011;68857;47.916;106.940;2024-03-02T01:57:27;30.15;;;11.65;;
79401;SDS011;68857;47.916;106.940;2024-03-02T01:59:54;38.72;;;11.68;;
79401;SDS011;68857;47.916;106.940;2024-03-02T02:02:21;33.45;;;13.05;;
79401;SDS011;68857;47.916;106.940;2024-03-02T02:04:48;32.65;;;11.60;;
79401;SDS011;68857;47.916;106.940;2024-03-02T02:07:14;34.88;;;13.63;;
79401;SDS011;68857;47.916;106.940;2024-03-02T02:09:41;30.70;;;10.68;;
79401;SDS011;68857;47.916;106.940;2024-03-02T02:12:11;37.50;;;12.10;;
79401;SDS011;68857;47.916;106.940;2024-03-02T02:14:38;28.42;;;10.55;;
79401;SDS011;68857;47.916;106.940;2024-03-02T02:17:05;36.00;;;11.35;;
79401;SDS011;68857;47.916;106.940;2024-03-02T02:19:32;31.42;;;11.95;;
79401;SDS011;68857;47.916;106.940;2024-03-02T02:21:59;29.58;;;11.55;;
79401;SDS011;68857;47.916;106.940;2024-03-02T02:24:25;32.85;;;12.70;;
79401;SDS011;68857;47.916;106.940;2024-03-02T02:26:52;32.70;;;12.45;;
79401;SDS011;68857;47.916;106.940;2024-03-02T02:29:19;29.10;;;12.05;;
79401;SDS011;68857;47.916;106.940;2024-03-02T02:31:45;34.67;;;13.07;;
79401;SDS011;68857;47.916;106.940;2024-03-02T02:34:13;35.85;;;13.52;;
79401;SDS011;68857;47.916;106.940;2024-03-02T02:36:41;32.35;;;12.70;;
79401;SDS011;68857;47.916;106.940;2024-03-02T02:39:10;33.53;;;11.00;;
79401;SDS011;68857;47.916;106.940;2024-03-02T02:41:37;36.78;;;12.95;;
79401;SDS011;68857;47.916;106.940;2024-03-02T02:44:04;29.00;;;11.63;;
79401;SDS011;68857;47.916;106.940;2024-03-02T02:46:31;30.63;;;12.48;;
79401;SDS011;68857;47.916;106.940;2024-03-02T02:48:58;29.20;;;10.32;;
79401;SDS011;68857;47.916;106.940;2024-03-02T02:51:25;30.83;;;10.52;;
79401;SDS011;68857;47.916;106.940;2024-03-02T02:53:52;32.63;;;10.55;;
79401;SDS011;68857;47.916;106.940;2024-03-02T02:56:18;35.95;;;11.35;;
79401;SDS011;68857;47.916;106.940;2024-03-02T02:58:45;34.30;;;11.50;;
79401;SDS011;68857;47.916;106.940;2024-03-02T03:01:12;32.60;;;10.60;;
79401;SDS011;68857;47.916;106.940;2024-03-02T03:03:39;31.17;;;11.30;;
79401;SDS011;68857;47.916;106.940;2024-03-02T03:06:06;32.42;;;11.25;;
79401;SDS011;68857;47.916;106.940;2024-03-02T03:08:32;33.53;;;12.32;;
79401;SDS011;68857;47.916;106.940;2024-03-02T03:11:00;40.63;;;12.70;;
79401;SDS011;68857;47.916;106.940;2024-03-02T03:13:26;31.65;;;11.43;;
79401;SDS011;68857;47.916;106.940;2024-03-02T03:15:53;42.67;;;11.70;;
79401;SDS011;68857;47.916;106.940;2024-03-02T03:18:20;34.40;;;11.73;;
79401;SDS011;68857;47.916;106.940;2024-03-02T03:20:47;38.50;;;13.30;;
79401;SDS011;68857;47.916;106.940;2024-03-02T03:23:14;32.95;;;12.20;;
79401;SDS011;68857;47.916;106.940;2024-03-02T03:25:41;34.38;;;12.48;;
79401;SDS011;68857;47.916;106.940;2024-03-02T03:28:08;31.58;;;11.73;;
79401;SDS011;68857;47.916;106.940;2024-03-02T03:30:38;29.73;;;10.00;;
79401;SDS011;68857;47.916;106.940;2024-03-02T03:33:05;27.90;;;9.75;;
79401;SDS011;68857;47.916;106.940;2024-03-02T03:35:32;34.65;;;11.30;;
79401;SDS011;68857;47.916;106.940;2024-03-02T03:37:59;36.65;;;11.40;;
79401;SDS011;68857;47.916;106.940;2024-03-02T03:40:25;23.95;;;9.07;;
79401;SDS011;68857;47.916;106.940;2024-03-02T03:42:52;24.17;;;8.40;;
79401;SDS011;68857;47.916;106.940;2024-03-02T03:45:21;25.40;;;9.73;;
79401;SDS011;68857;47.916;106.940;2024-03-02T03:47:48;24.85;;;7.85;;
79401;SDS011;68857;47.916;106.940;2024-03-02T03:50:15;23.73;;;8.68;;
79401;SDS011;68857;47.916;106.940;2024-03-02T03:52:41;27.75;;;9.10;;
79401;SDS011;68857;47.916;106.940;2024-03-02T03:57:35;27.05;;;9.05;;
79401;SDS011;68857;47.916;106.940;2024-03-02T04:00:02;25.40;;;8.95;;
79401;SDS011;68857;47.916;106.940;2024-03-02T04:02:29;37.78;;;8.85;;
79401;SDS011;68857;47.916;106.940;2024-03-02T04:04:56;30.73;;;8.95;;
79401;SDS011;68857;47.916;106.940;2024-03-02T04:07:23;30.77;;;8.85;;
79401;SDS011;68857;47.916;106.940;2024-03-02T04:09:50;23.38;;;8.75;;
79401;SDS011;68857;47.916;106.940;2024-03-02T04:12:16;25.15;;;8.15;;
79401;SDS011;68857;47.916;106.940;2024-03-02T04:14:43;24.42;;;8.50;;
79401;SDS011;68857;47.916;106.940;2024-03-02T04:17:10;20.90;;;7.50;;
79401;SDS011;68857;47.916;106.940;2024-03-02T04:19:37;22.70;;;7.65;;
79401;SDS011;68857;47.916;106.940;2024-03-02T04:22:03;22.08;;;7.93;;
79401;SDS011;68857;47.916;106.940;2024-03-02T04:24:30;21.75;;;8.30;;
79401;SDS011;68857;47.916;106.940;2024-03-02T04:26:57;26.90;;;8.30;;
79401;SDS011;68857;47.916;106.940;2024-03-02T04:29:24;21.65;;;6.90;;
79401;SDS011;68857;47.916;106.940;2024-03-02T04:31:50;17.60;;;6.93;;
79401;SDS011;68857;47.916;106.940;2024-03-02T04:34:17;21.95;;;8.23;;
79401;SDS011;68857;47.916;106.940;2024-03-02T04:36:44;23.67;;;8.85;;
79401;SDS011;68857;47.916;106.940;2024-03-02T04:39:10;19.65;;;6.35;;
79401;SDS011;68857;47.916;106.940;2024-03-02T04:41:38;20.95;;;6.22;;
79401;SDS011;68857;47.916;106.940;2024-03-02T04:44:05;26.33;;;9.13;;
79401;SDS011;68857;47.916;106.940;2024-03-02T04:46:33;21.35;;;7.50;;
79401;SDS011;68857;47.916;106.940;2024-03-02T04:49:00;21.67;;;8.68;;
79401;SDS011;68857;47.916;106.940;2024-03-02T04:51:26;25.15;;;9.35;;
79401;SDS011;68857;47.916;106.940;2024-03-02T04:53:53;23.77;;;8.90;;
79401;SDS011;68857;47.916;106.940;2024-03-02T04:56:20;26.17;;;8.40;;
79401;SDS011;68857;47.916;106.940;2024-03-02T04:59:19;32.55;;;8.85;;
79401;SDS011;68857;47.916;106.940;2024-03-02T05:01:46;25.27;;;8.98;;
79401;SDS011;68857;47.916;106.940;2024-03-02T05:04:13;26.88;;;7.05;;
79401;SDS011;68857;47.916;106.940;2024-03-02T05:09:07;28.40;;;7.20;;
79401;SDS011;68857;47.916;106.940;2024-03-02T05:11:33;31.35;;;9.02;;
79401;SDS011;68857;47.916;106.940;2024-03-02T05:14:03;29.33;;;8.05;;
79401;SDS011;68857;47.916;106.940;2024-03-02T05:16:36;26.65;;;8.63;;
79401;SDS011;68857;47.916;106.940;2024-03-02T05:19:07;30.90;;;8.80;;
79401;SDS011;68857;47.916;106.940;2024-03-02T05:21:34;27.55;;;9.20;;
79401;SDS011;68857;47.916;106.940;2024-03-02T05:26:27;26.05;;;7.63;;
79401;SDS011;68857;47.916;106.940;2024-03-02T05:28:54;26.08;;;7.07;;
79401;SDS011;68857;47.916;106.940;2024-03-02T05:31:21;25.30;;;8.20;;
79401;SDS011;68857;47.916;106.940;2024-03-02T05:33:47;23.67;;;8.82;;
79401;SDS011;68857;47.916;106.940;2024-03-02T05:36:14;29.45;;;10.63;;
79401;SDS011;68857;47.916;106.940;2024-03-02T05:38:41;20.58;;;7.13;;
79401;SDS011;68857;47.916;106.940;2024-03-02T05:41:08;25.67;;;6.80;;
79401;SDS011;68857;47.916;106.940;2024-03-02T05:43:35;24.38;;;8.07;;
79401;SDS011;68857;47.916;106.940;2024-03-02T05:46:01;29.17;;;8.63;;
79401;SDS011;68857;47.916;106.940;2024-03-02T05:48:28;36.15;;;10.20;;
79401;SDS011;68857;47.916;106.940;2024-03-02T05:50:55;40.13;;;12.05;;
79401;SDS011;68857;47.916;106.940;2024-03-02T05:53:22;39.15;;;11.00;;
79401;SDS011;68857;47.916;106.940;2024-03-02T05:55:49;44.00;;;11.88;;
79401;SDS011;68857;47.916;106.940;2024-03-02T05:58:20;43.83;;;13.43;;
79401;SDS011;68857;47.916;106.940;2024-03-02T06:00:50;42.47;;;12.82;;
79401;SDS011;68857;47.916;106.940;2024-03-02T06:03:16;42.20;;;12.93;;
79401;SDS011;68857;47.916;106.940;2024-03-02T06:05:43;40.35;;;16.85;;
79401;SDS011;68857;47.916;106.940;2024-03-02T06:08:10;38.60;;;13.95;;
79401;SDS011;68857;47.916;106.940;2024-03-02T06:10:37;42.90;;;13.77;;
79401;SDS011;68857;47.916;106.940;2024-03-02T06:13:03;36.72;;;13.70;;
79401;SDS011;68857;47.916;106.940;2024-03-02T06:15:30;36.97;;;12.93;;
79401;SDS011;68857;47.916;106.940;2024-03-02T06:17:57;38.58;;;14.35;;
79401;SDS011;68857;47.916;106.940;2024-03-02T06:20:24;40.40;;;13.30;;
79401;SDS011;68857;47.916;106.940;2024-03-02T06:22:52;35.58;;;12.60;;
79401;SDS011;68857;47.916;106.940;2024-03-02T06:25:18;36.83;;;13.48;;
79401;SDS011;68857;47.916;106.940;2024-03-02T06:27:45;34.45;;;11.68;;
79401;SDS011;68857;47.916;106.940;2024-03-02T06:30:12;32.92;;;12.43;;
79401;SDS011;68857;47.916;106.940;2024-03-02T06:32:39;36.05;;;11.45;;
79401;SDS011;68857;47.916;106.940;2024-03-02T06:35:06;28.48;;;9.05;;
79401;SDS011;68857;47.916;106.940;2024-03-02T06:37:36;33.53;;;10.27;;
79401;SDS011;68857;47.916;106.940;2024-03-02T06:40:02;26.27;;;10.77;;
79401;SDS011;68857;47.916;106.940;2024-03-02T06:42:29;25.13;;;9.27;;
79401;SDS011;68857;47.916;106.940;2024-03-02T06:44:59;24.88;;;8.93;;
79401;SDS011;68857;47.916;106.940;2024-03-02T06:47:26;25.35;;;8.95;;
79401;SDS011;68857;47.916;106.940;2024-03-02T06:49:53;23.98;;;9.02;;
79401;SDS011;68857;47.916;106.940;2024-03-02T06:52:19;23.92;;;10.27;;
79401;SDS011;68857;47.916;106.940;2024-03-02T06:54:46;26.10;;;9.60;;
79401;SDS011;68857;47.916;106.940;2024-03-02T06:57:13;22.75;;;8.45;;
79401;SDS011;68857;47.916;106.940;2024-03-02T06:59:41;22.63;;;8.80;;
79401;SDS011;68857;47.916;106.940;2024-03-02T07:02:08;21.75;;;9.02;;
79401;SDS011;68857;47.916;106.940;2024-03-02T07:04:35;23.13;;;9.50;;
79401;SDS011;68857;47.916;106.940;2024-03-02T07:07:01;22.67;;;8.40;;
79401;SDS011;68857;47.916;106.940;2024-03-02T07:09:28;24.20;;;10.07;;
79401;SDS011;68857;47.916;106.940;2024-03-02T07:11:55;23.13;;;8.02;;
79401;SDS011;68857;47.916;106.940;2024-03-02T07:14:21;23.85;;;8.10;;
79401;SDS011;68857;47.916;106.940;2024-03-02T07:17:08;19.48;;;6.95;;
79401;SDS011;68857;47.916;106.940;2024-03-02T07:19:35;22.15;;;6.88;;
79401;SDS011;68857;47.916;106.940;2024-03-02T07:22:05;19.38;;;6.85;;
79401;SDS011;68857;47.916;106.940;2024-03-02T07:24:32;20.42;;;7.22;;
79401;SDS011;68857;47.916;106.940;2024-03-02T07:26:59;16.83;;;6.13;;
79401;SDS011;68857;47.916;106.940;2024-03-02T07:29:26;17.58;;;5.85;;
79401;SDS011;68857;47.916;106.940;2024-03-02T07:31:53;20.30;;;6.38;;
79401;SDS011;68857;47.916;106.940;2024-03-02T07:34:20;20.30;;;6.63;;
79401;SDS011;68857;47.916;106.940;2024-03-02T07:39:13;18.98;;;6.10;;
79401;SDS011;68857;47.916;106.940;2024-03-02T07:41:40;14.07;;;5.35;;
79401;SDS011;68857;47.916;106.940;2024-03-02T07:44:07;18.15;;;5.93;;
79401;SDS011;68857;47.916;106.940;2024-03-02T07:46:33;18.50;;;6.13;;
79401;SDS011;68857;47.916;106.940;2024-03-02T07:49:00;20.35;;;5.63;;
79401;SDS011;68857;47.916;106.940;2024-03-02T07:51:27;15.82;;;5.10;;
79401;SDS011;68857;47.916;106.940;2024-03-02T07:53:53;14.40;;;5.10;;
79401;SDS011;68857;47.916;106.940;2024-03-02T07:56:20;23.38;;;6.63;;
79401;SDS011;68857;47.916;106.940;2024-03-02T07:58:50;13.68;;;5.00;;
79401;SDS011;68857;47.916;106.940;2024-03-02T08:01:17;15.20;;;5.93;;
79401;SDS011;68857;47.916;106.940;2024-03-02T08:03:44;17.67;;;5.70;;
79401;SDS011;68857;47.916;106.940;2024-03-02T08:06:17;15.27;;;5.78;;
79401;SDS011;68857;47.916;106.940;2024-03-02T08:08:47;15.73;;;5.78;;
79401;SDS011;68857;47.916;106.940;2024-03-02T08:11:14;17.70;;;5.60;;
79401;SDS011;68857;47.916;106.940;2024-03-02T08:13:41;16.65;;;5.50;;
79401;SDS011;68857;47.916;106.940;2024-03-02T08:16:07;12.82;;;5.53;;
79401;SDS011;68857;47.916;106.940;2024-03-02T08:21:01;19.38;;;5.47;;
79401;SDS011;68857;47.916;106.940;2024-03-02T08:23:27;16.98;;;5.95;;
79401;SDS011;68857;47.916;106.940;2024-03-02T08:25:54;14.48;;;5.78;;
79401;SDS011;68857;47.916;106.940;2024-03-02T08:28:21;20.20;;;5.95;;
79401;SDS011;68857;47.916;106.940;2024-03-02T08:30:48;19.83;;;6.47;;
79401;SDS011;68857;47.916;106.940;2024-03-02T08:33:14;20.55;;;6.38;;
79401;SDS011;68857;47.916;106.940;2024-03-02T08:35:41;23.50;;;6.65;;
79401;SDS011;68857;47.916;106.940;2024-03-02T08:38:08;17.45;;;5.53;;
79401;SDS011;68857;47.916;106.940;2024-03-02T08:40:35;20.65;;;6.13;;
79401;SDS011;68857;47.916;106.940;2024-03-02T08:43:02;27.90;;;9.95;;
79401;SDS011;68857;47.916;106.940;2024-03-02T08:45:28;35.65;;;16.02;;
79401;SDS011;68857;47.916;106.940;2024-03-02T08:47:55;47.42;;;18.35;;
79401;SDS011;68857;47.916;106.940;2024-03-02T08:50:22;38.15;;;16.65;;
79401;SDS011;68857;47.916;106.940;2024-03-02T08:52:48;42.03;;;16.05;;
79401;SDS011;68857;47.916;106.940;2024-03-02T08:55:15;32.58;;;14.05;;
79401;SDS011;68857;47.916;106.940;2024-03-02T08:57:42;39.03;;;16.45;;
79401;SDS011;68857;47.916;106.940;2024-03-02T09:00:09;31.52;;;12.57;;
79401;SDS011;68857;47.916;106.940;2024-03-02T09:02:36;34.38;;;11.70;;
79401;SDS011;68857;47.916;106.940;2024-03-02T09:07:29;31.75;;;11.10;;
79401;SDS011;68857;47.916;106.940;2024-03-02T09:09:56;30.45;;;11.85;;
79401;SDS011;68857;47.916;106.940;2024-03-02T09:12:22;23.05;;;9.95;;
79401;SDS011;68857;47.916;106.940;2024-03-02T09:14:49;25.30;;;10.52;;
79401;SDS011;68857;47.916;106.940;2024-03-02T09:17:16;31.08;;;9.95;;
79401;SDS011;68857;47.916;106.940;2024-03-02T09:19:43;28.42;;;10.55;;
79401;SDS011;68857;47.916;106.940;2024-03-02T09:22:09;29.42;;;9.65;;
79401;SDS011;68857;47.916;106.940;2024-03-02T09:24:36;25.08;;;9.77;;
79401;SDS011;68857;47.916;106.940;2024-03-02T09:27:03;27.63;;;9.93;;
79401;SDS011;68857;47.916;106.940;2024-03-02T09:29:30;24.08;;;9.18;;
79401;SDS011;68857;47.916;106.940;2024-03-02T09:31:57;26.48;;;8.40;;
79401;SDS011;68857;47.916;106.940;2024-03-02T09:34:24;24.13;;;7.38;;
79401;SDS011;68857;47.916;106.940;2024-03-02T09:36:51;25.58;;;8.20;;
79401;SDS011;68857;47.916;106.940;2024-03-02T09:39:17;26.45;;;8.13;;
79401;SDS011;68857;47.916;106.940;2024-03-02T09:41:44;29.83;;;8.93;;
79401;SDS011;68857;47.916;106.940;2024-03-02T09:44:11;26.25;;;8.75;;
79401;SDS011;68857;47.916;106.940;2024-03-02T09:46:38;31.38;;;7.95;;
79401;SDS011;68857;47.916;106.940;2024-03-02T09:49:05;28.95;;;8.70;;
79401;SDS011;68857;47.916;106.940;2024-03-02T09:51:32;23.20;;;8.50;;
79401;SDS011;68857;47.916;106.940;2024-03-02T09:53:59;28.83;;;9.13;;
79401;SDS011;68857;47.916;106.940;2024-03-02T09:56:27;34.33;;;9.32;;
79401;SDS011;68857;47.916;106.940;2024-03-02T09:58:54;26.02;;;8.07;;
79401;SDS011;68857;47.916;106.940;2024-03-02T10:01:21;35.28;;;8.57;;
79401;SDS011;68857;47.916;106.940;2024-03-02T10:03:47;24.35;;;7.97;;
79401;SDS011;68857;47.916;106.940;2024-03-02T10:06:25;25.23;;;8.60;;
79401;SDS011;68857;47.916;106.940;2024-03-02T10:08:53;26.95;;;10.57;;
79401;SDS011;68857;47.916;106.940;2024-03-02T10:14:12;28.85;;;9.90;;
79401;SDS011;68857;47.916;106.940;2024-03-02T10:16:40;21.60;;;8.45;;
79401;SDS011;68857;47.916;106.940;2024-03-02T10:19:20;25.88;;;9.20;;
79401;SDS011;68857;47.916;106.940;2024-03-02T10:21:51;26.50;;;8.95;;
79401;SDS011;68857;47.916;106.940;2024-03-02T10:24:18;23.00;;;8.20;;
79401;SDS011;68857;47.916;106.940;2024-03-02T10:26:45;23.27;;;7.82;;
79401;SDS011;68857;47.916;106.940;2024-03-02T10:29:12;22.60;;;8.35;;
79401;SDS011;68857;47.916;106.940;2024-03-02T10:31:39;23.48;;;8.85;;
79401;SDS011;68857;47.916;106.940;2024-03-02T10:34:07;23.20;;;8.75;;
79401;SDS011;68857;47.916;106.940;2024-03-02T10:36:34;25.52;;;9.45;;
79401;SDS011;68857;47.916;106.940;2024-03-02T10:39:04;27.67;;;8.43;;
79401;SDS011;68857;47.916;106.940;2024-03-02T10:41:32;29.60;;;9.52;;
79401;SDS011;68857;47.916;106.940;2024-03-02T10:44:01;23.23;;;8.82;;
79401;SDS011;68857;47.916;106.940;2024-03-02T10:46:29;21.95;;;6.90;;
79401;SDS011;68857;47.916;106.940;2024-03-02T10:48:56;22.00;;;9.40;;
79401;SDS011;68857;47.916;106.940;2024-03-02T10:51:26;22.50;;;8.15;;
79401;SDS011;68857;47.916;106.940;2024-03-02T10:53:57;20.65;;;6.93;;
79401;SDS011;68857;47.916;106.940;2024-03-02T10:56:34;20.17;;;7.72;;
79401;SDS011;68857;47.916;106.940;2024-03-02T10:59:03;21.05;;;7.82;;
79401;SDS011;68857;47.916;106.940;2024-03-02T11:01:33;16.80;;;6.55;;
79401;SDS011;68857;47.916;106.940;2024-03-02T11:04:02;21.98;;;7.43;;
79401;SDS011;68857;47.916;106.940;2024-03-02T11:06:28;20.25;;;6.88;;
79401;SDS011;68857;47.916;106.940;2024-03-02T11:08:59;23.35;;;7.00;;
79401;SDS011;68857;47.916;106.940;2024-03-02T11:11:29;21.88;;;7.97;;
79401;SDS011;68857;47.916;106.940;2024-03-02T11:13:56;17.83;;;7.43;;
79401;SDS011;68857;47.916;106.940;2024-03-02T11:19:03;19.30;;;8.07;;
79401;SDS011;68857;47.916;106.940;2024-03-02T11:21:34;18.10;;;7.15;;
79401;SDS011;68857;47.916;106.940;2024-03-02T11:26:47;23.30;;;9.00;;
79401;SDS011;68857;47.916;106.940;2024-03-02T11:32:05;30.85;;;9.60;;
79401;SDS011;68857;47.916;106.940;2024-03-02T11:34:33;26.30;;;9.63;;
79401;SDS011;68857;47.916;106.940;2024-03-02T11:37:03;25.88;;;10.52;;
79401;SDS011;68857;47.916;106.940;2024-03-02T11:39:30;30.13;;;9.07;;
79401;SDS011;68857;47.916;106.940;2024-03-02T11:44:30;28.83;;;12.25;;
79401;SDS011;68857;47.916;106.940;2024-03-02T11:46:59;34.45;;;13.15;;
79401;SDS011;68857;47.916;106.940;2024-03-02T11:52:05;37.80;;;13.27;;
79401;SDS011;68857;47.916;106.940;2024-03-02T11:54:33;34.28;;;11.82;;
79401;SDS011;68857;47.916;106.940;2024-03-02T11:57:03;34.90;;;12.35;;
79401;SDS011;68857;47.916;106.940;2024-03-02T11:59:30;36.15;;;14.77;;
79401;SDS011;68857;47.916;106.940;2024-03-02T12:01:57;47.45;;;15.65;;
79401;SDS011;68857;47.916;106.940;2024-03-02T12:04:25;47.00;;;17.05;;
79401;SDS011;68857;47.916;106.940;2024-03-02T12:09:18;51.67;;;17.08;;
79401;SDS011;68857;47.916;106.940;2024-03-02T12:11:45;50.85;;;18.80;;
79401;SDS011;68857;47.916;106.940;2024-03-02T12:14:12;57.58;;;21.70;;
79401;SDS011;68857;47.916;106.940;2024-03-02T12:19:08;52.28;;;18.98;;
79401;SDS011;68857;47.916;106.940;2024-03-02T12:21:34;53.63;;;19.70;;
79401;SDS011;68857;47.916;106.940;2024-03-02T12:24:02;53.55;;;20.33;;
79401;SDS011;68857;47.916;106.940;2024-03-02T12:26:29;53.75;;;22.67;;
79401;SDS011;68857;47.916;106.940;2024-03-02T12:28:56;59.40;;;21.90;;
79401;SDS011;68857;47.916;106.940;2024-03-02T12:31:23;64.50;;;23.95;;
79401;SDS011;68857;47.916;106.940;2024-03-02T12:33:50;62.15;;;24.42;;
79401;SDS011;68857;47.916;106.940;2024-03-02T12:36:17;54.13;;;21.73;;
79401;SDS011;68857;47.916;106.940;2024-03-02T12:38:44;58.10;;;21.33;;
79401;SDS011;68857;47.916;106.940;2024-03-02T12:41:14;61.67;;;22.45;;
79401;SDS011;68857;47.916;106.940;2024-03-02T12:43:41;55.85;;;22.35;;
79401;SDS011;68857;47.916;106.940;2024-03-02T12:46:08;67.18;;;24.27;;
79401;SDS011;68857;47.916;106.940;2024-03-02T12:48:35;62.30;;;22.25;;
79401;SDS011;68857;47.916;106.940;2024-03-02T12:51:02;56.22;;;20.17;;
79401;SDS011;68857;47.916;106.940;2024-03-02T12:53:29;61.92;;;23.02;;
79401;SDS011;68857;47.916;106.940;2024-03-02T12:55:56;61.60;;;20.80;;
79401;SDS011;68857;47.916;106.940;2024-03-02T12:58:23;55.22;;;21.88;;
79401;SDS011;68857;47.916;106.940;2024-03-02T13:01:05;57.38;;;22.08;;
79401;SDS011;68857;47.916;106.940;2024-03-02T13:03:35;57.30;;;19.73;;
79401;SDS011;68857;47.916;106.940;2024-03-02T13:06:01;60.75;;;23.13;;
79401;SDS011;68857;47.916;106.940;2024-03-02T13:08:28;59.10;;;19.95;;
79401;SDS011;68857;47.916;106.940;2024-03-02T13:10:55;58.92;;;21.67;;
79401;SDS011;68857;47.916;106.940;2024-03-02T13:13:22;66.25;;;21.67;;
79401;SDS011;68857;47.916;106.940;2024-03-02T13:15:49;57.05;;;20.17;;
79401;SDS011;68857;47.916;106.940;2024-03-02T13:18:17;50.50;;;17.05;;
79401;SDS011;68857;47.916;106.940;2024-03-02T13:20:44;41.90;;;14.40;;
79401;SDS011;68857;47.916;106.940;2024-03-02T13:23:11;37.13;;;12.77;;
79401;SDS011;68857;47.916;106.940;2024-03-02T13:25:38;30.88;;;11.70;;
79401;SDS011;68857;47.916;106.940;2024-03-02T13:28:04;33.92;;;11.25;;
79401;SDS011;68857;47.916;106.940;2024-03-02T13:30:32;30.90;;;11.93;;
79401;SDS011;68857;47.916;106.940;2024-03-02T13:32:58;26.15;;;9.32;;
79401;SDS011;68857;47.916;106.940;2024-03-02T13:37:52;19.55;;;7.68;;
79401;SDS011;68857;47.916;106.940;2024-03-02T13:40:19;23.92;;;9.00;;
79401;SDS011;68857;47.916;106.940;2024-03-02T13:42:46;22.50;;;7.72;;
79401;SDS011;68857;47.916;106.940;2024-03-02T13:47:39;29.27;;;9.73;;
79401;SDS011;68857;47.916;106.940;2024-03-02T13:50:06;27.10;;;9.48;;
79401;SDS011;68857;47.916;106.940;2024-03-02T13:52:32;34.47;;;11.52;;
79401;SDS011;68857;47.916;106.940;2024-03-02T13:54:59;28.42;;;10.93;;
79401;SDS011;68857;47.916;106.940;2024-03-02T13:57:26;25.48;;;12.63;;
79401;SDS011;68857;47.916;106.940;2024-03-02T13:59:53;30.30;;;10.02;;
79401;SDS011;68857;47.916;106.940;2024-03-02T14:02:20;34.10;;;11.00;;
79401;SDS011;68857;47.916;106.940;2024-03-02T14:04:48;26.67;;;9.95;;
79401;SDS011;68857;47.916;106.940;2024-03-02T14:07:16;28.10;;;11.48;;
79401;SDS011;68857;47.916;106.940;2024-03-02T14:09:42;31.13;;;10.68;;
79401;SDS011;68857;47.916;106.940;2024-03-02T14:12:10;31.60;;;10.75;;
79401;SDS011;68857;47.916;106.940;2024-03-02T14:14:38;34.40;;;13.52;;
79401;SDS011;68857;47.916;106.940;2024-03-02T14:17:05;29.92;;;12.77;;
79401;SDS011;68857;47.916;106.940;2024-03-02T14:19:37;38.20;;;12.15;;
79401;SDS011;68857;47.916;106.940;2024-03-02T14:22:04;39.78;;;16.17;;
79401;SDS011;68857;47.916;106.940;2024-03-02T14:24:31;34.35;;;13.27;;
79401;SDS011;68857;47.916;106.940;2024-03-02T14:29:27;40.85;;;14.02;;
79401;SDS011;68857;47.916;106.940;2024-03-02T14:34:20;47.38;;;14.95;;
79401;SDS011;68857;47.916;106.940;2024-03-02T14:36:47;51.72;;;17.38;;
79401;SDS011;68857;47.916;106.940;2024-03-02T14:39:14;47.72;;;15.48;;
79401;SDS011;68857;47.916;106.940;2024-03-02T14:41:41;41.45;;;14.73;;
79401;SDS011;68857;47.916;106.940;2024-03-02T14:46:34;43.22;;;15.50;;
79401;SDS011;68857;47.916;106.940;2024-03-02T14:49:01;47.97;;;17.55;;
79401;SDS011;68857;47.916;106.940;2024-03-02T14:51:28;44.42;;;17.30;;